DAUG/GHA METAR and TAF weather

Enter ICAO airport designator
Station Type Date Time Source
DAUG METAR 2018/12/10 17:00 UTC NOAA

DAUG 101700Z 00000KT CAVOK 18/01 Q1025


Station Type Date Time Source
DAUG Decoded METAR 2018/12/10 17:00 UTC NOAA

Ghardaia, Algeria (DAUG) 32-23N 003-49E 450M
Dec 10, 2018 - 12:00 PM EST / 2018.12.10 1700 UTC
Wind: Calm:0
Visibility: greater than 7 mile(s):0
Temperature: 64 F (18 C)
Dew Point: 33 F (1 C)
Relative Humidity: 31%
Pressure (altimeter): 30.27 in. Hg (1025 hPa)
ob: DAUG 101700Z 00000KT CAVOK 18/01 Q1025
cycle: 17

Station Type Date Time Source
DAUG TAF 2018/12/10 12:33 UTC NOAA

TAF TAF DAUG 101100Z 1012/1112 04010KT CAVOK
BECMG 1018/1021 VRB02KT
BECMG 1103/1106 32010KT


Example: see airport list